Gallatin Gateway, MT

10:23 PM MST on February 27, 2015 (GMT -0700)
APRSWXNET Gallatin Gateway MT US | Change Station
CLOSE
Current Station
Personal Weather Station
Location: Bozeman, MT
Elevation: 5279 ft
Nearby Weather Stations

Elev 5279 ft 45.55 °N, 111.19 °W | Updated 20 minutes ago

Overcast
Overcast
16 °F
Feels Like 16 °F
N
1
Wind Variable Wind from WSW
Gusts 0.0 mph

Today
High -- | Low -- °F
--% Chance of Precip.
Yesterday
High -- | Low -- °F
Precip. -- in
7:06 AM 6:08 PM
Waxing Gibbous, 74% visible
Pressure 30.14 in
Visibility 10.0 miles
Clouds Overcast 3900 ft
Windchill 16 °F
Dew Point 12 °F
Humidity 85%
Rainfall -999.00 in
Snow Depth Not available.
UV 0 out of 12
Pollen .40 out of 12
Air Quality Not available.
Flu Activity Not available.
METAR KBZN 280456Z 33009KT 10SM OVC039 M08/M13 A2994 RMK AO2 SLP204 T10781128

More Conditions Fewer Conditions

Pressure 30.14 in
Visibility 10.0 miles
Clouds Overcast 3900 ft
Windchill 16 °F
Dew Point 12 °F
Humidity 85%
Rainfall -999.00 in
Snow Depth Not available.
UV 0 out of 12
Pollen .40 out of 12
Air Quality Not available.
Flu Activity Not available.
METAR KBZN 280456Z 33009KT 10SM OVC039 M08/M13 A2994 RMK AO2 SLP204 T10781128

More Conditions Fewer Conditions

10-Day Weather Forecast

Almanac

Astronomy

Feb. 27, 2015 Rise Set
Actual Time
Civil Twilight
Nautical Twilight
Astronomical Twilight
Moon
Length of Visible Light
Length of Day
Tomorrow will be .
, % of the Moon is Illuminated

Today's Extremes

State Highs State Lows

Community

WunderPhotos

Upload Photos

1,800,973 photos uploaded!

WunderBlogs® & News

Nearby

Air Quality

  Air Quality AQ Index Pollutant
Not available.

Snow Depth

Station Depth Elevation

Earthquake Activity

City Distance Mag. Time & Date
Minimum magnitude displayed is 2.5.

Coastal Water Temperatures

Place Temperature

Nearby Weather Stations